createdAt,value
2022-09-06T00:00:11.908Z,18.14
2022-09-06T00:02:39.270Z,18.11
2022-09-06T00:05:07.592Z,18.08
2022-09-06T00:07:35.039Z,18.06
2022-09-06T00:10:01.964Z,18.02
2022-09-06T00:12:28.840Z,17.99
2022-09-06T00:14:55.718Z,17.97
2022-09-06T00:17:22.511Z,17.93
2022-09-06T00:19:49.285Z,17.91
2022-09-06T00:22:16.150Z,17.88
2022-09-06T00:24:42.871Z,17.87
2022-09-06T00:27:09.905Z,17.84
2022-09-06T00:29:36.636Z,17.81
2022-09-06T00:32:03.422Z,17.78
2022-09-06T00:34:30.365Z,17.74
2022-09-06T00:36:57.139Z,17.72
2022-09-06T00:39:24.016Z,17.69
2022-09-06T00:41:50.818Z,17.65
2022-09-06T00:44:17.563Z,17.60
2022-09-06T00:46:47.092Z,17.58
2022-09-06T00:49:31.910Z,17.58
2022-09-06T00:52:05.479Z,17.53
2022-09-06T00:54:32.524Z,17.48
2022-09-06T00:56:59.922Z,17.43
2022-09-06T00:59:29.164Z,17.35
2022-09-06T01:01:56.065Z,17.39
2022-09-06T01:04:23.905Z,17.37
2022-09-06T01:07:11.684Z,17.35
2022-09-06T01:09:53.621Z,17.32
2022-09-06T01:13:01.751Z,17.29
2022-09-06T01:15:45.466Z,17.27
2022-09-06T01:18:30.888Z,17.23
2022-09-06T01:21:15.905Z,17.20
2022-09-06T01:24:00.994Z,17.17
2022-09-06T01:26:27.696Z,17.14
2022-09-06T01:28:55.213Z,17.11
2022-09-06T01:31:39.160Z,17.10
2022-09-06T01:34:05.734Z,17.05
2022-09-06T01:37:10.841Z,17.00
2022-09-06T01:39:39.669Z,16.98
2022-09-06T01:42:14.947Z,16.97
2022-09-06T01:44:46.410Z,16.95
2022-09-06T01:47:19.310Z,16.93
2022-09-06T01:50:00.924Z,16.92
2022-09-06T01:52:39.853Z,16.87
2022-09-06T01:55:29.466Z,16.85
2022-09-06T01:58:26.913Z,16.83
2022-09-06T02:01:17.710Z,16.79
2022-09-06T02:03:56.916Z,16.77
2022-09-06T02:06:41.161Z,16.75
2022-09-06T02:09:12.298Z,16.72
2022-09-06T02:12:00.724Z,16.71
2022-09-06T02:14:36.898Z,16.69
2022-09-06T02:17:05.940Z,16.68
2022-09-06T02:19:53.900Z,16.65
2022-09-06T02:22:23.349Z,16.63
2022-09-06T02:24:53.870Z,16.62
2022-09-06T02:27:20.756Z,16.59
2022-09-06T02:29:47.546Z,16.56
2022-09-06T02:32:22.016Z,16.57
2022-09-06T02:34:53.604Z,16.54
2022-09-06T02:37:21.070Z,16.51
2022-09-06T02:39:47.794Z,16.49
2022-09-06T02:42:17.635Z,16.47
2022-09-06T02:44:44.552Z,16.46
2022-09-06T02:47:11.326Z,16.45
2022-09-06T02:49:38.022Z,16.42
2022-09-06T02:52:04.932Z,16.41
2022-09-06T02:54:31.625Z,16.38
2022-09-06T02:56:58.438Z,16.37
2022-09-06T02:59:25.249Z,16.35
2022-09-06T03:01:51.945Z,16.34
2022-09-06T03:04:18.647Z,16.33
2022-09-06T03:06:45.830Z,16.29
2022-09-06T03:09:12.517Z,16.31
2022-09-06T03:11:39.191Z,16.30
2022-09-06T03:14:09.004Z,16.27
2022-09-06T03:16:37.097Z,16.25
2022-09-06T03:19:04.213Z,16.23
2022-09-06T03:21:30.921Z,16.22
2022-09-06T03:23:59.417Z,16.22
2022-09-06T03:26:26.412Z,16.21
2022-09-06T03:28:53.093Z,16.19
2022-09-06T03:31:19.919Z,16.17
2022-09-06T03:33:46.760Z,16.16
2022-09-06T03:36:13.963Z,16.14
2022-09-06T03:38:40.631Z,16.14
2022-09-06T03:41:07.466Z,16.13
2022-09-06T03:43:34.224Z,16.11
2022-09-06T03:46:04.137Z,16.11
2022-09-06T03:48:30.973Z,16.10
2022-09-06T03:50:58.921Z,16.05
2022-09-06T03:53:27.911Z,16.06
2022-09-06T03:55:56.266Z,16.03
2022-09-06T03:58:24.130Z,16.02
2022-09-06T04:01:04.638Z,16.02
2022-09-06T04:03:31.541Z,16.00
2022-09-06T04:05:58.326Z,15.99
2022-09-06T04:08:25.123Z,15.98
2022-09-06T04:10:56.390Z,15.96
2022-09-06T04:13:24.705Z,15.94
2022-09-06T04:15:52.508Z,15.92
2022-09-06T04:18:20.635Z,15.89
2022-09-06T04:20:56.015Z,15.89
2022-09-06T04:23:24.927Z,15.86
2022-09-06T04:25:54.384Z,15.85
2022-09-06T04:28:22.395Z,15.83
2022-09-06T04:30:53.421Z,15.82
2022-09-06T04:33:20.705Z,15.79
2022-09-06T04:35:50.697Z,15.80
2022-09-06T04:38:17.439Z,15.79
2022-09-06T04:40:44.251Z,15.78
2022-09-06T04:43:10.997Z,15.77
2022-09-06T04:45:38.153Z,15.78
2022-09-06T04:48:05.120Z,15.77
2022-09-06T04:50:31.885Z,15.77
2022-09-06T04:52:58.541Z,15.76
2022-09-06T04:55:26.560Z,15.78
2022-09-06T04:57:54.386Z,15.78
2022-09-06T05:00:21.220Z,15.79
2022-09-06T05:02:48.684Z,15.77
2022-09-06T05:05:18.237Z,15.79
2022-09-06T05:07:44.963Z,15.80
2022-09-06T05:10:11.729Z,15.80
2022-09-06T05:12:42.171Z,15.81
2022-09-06T05:15:11.229Z,15.81
2022-09-06T05:17:38.065Z,15.82
2022-09-06T05:20:05.176Z,15.82
2022-09-06T05:22:31.864Z,15.82
2022-09-06T05:24:58.610Z,15.84
2022-09-06T05:27:25.547Z,15.83
2022-09-06T05:29:52.219Z,15.83
2022-09-06T05:32:18.978Z,15.86
2022-09-06T05:34:45.699Z,15.87
2022-09-06T05:37:12.552Z,15.88
2022-09-06T05:39:39.381Z,15.89
2022-09-06T05:42:06.911Z,15.90
2022-09-06T05:44:37.492Z,15.93
2022-09-06T05:47:04.879Z,15.94
2022-09-06T05:49:32.439Z,15.96
2022-09-06T05:52:02.119Z,15.98
2022-09-06T05:54:28.894Z,15.99
2022-09-06T05:56:55.572Z,16.01
2022-09-06T05:59:22.364Z,16.04
2022-09-06T06:01:51.367Z,16.03
2022-09-06T06:04:19.292Z,16.06
2022-09-06T06:06:46.984Z,16.11
2022-09-06T06:09:14.310Z,16.09
2022-09-06T06:11:42.165Z,16.06
2022-09-06T06:14:09.754Z,15.96
2022-09-06T06:16:36.627Z,16.07
2022-09-06T06:19:03.782Z,16.13
2022-09-06T06:21:32.420Z,16.14
2022-09-06T06:24:04.247Z,16.14
2022-09-06T06:26:33.426Z,16.20
2022-09-06T06:29:02.203Z,16.24
2022-09-06T06:31:30.718Z,16.20
2022-09-06T06:33:58.454Z,16.25
2022-09-06T06:36:27.176Z,16.29
2022-09-06T06:38:55.421Z,16.33
2022-09-06T06:41:24.850Z,16.37
2022-09-06T06:43:56.042Z,16.40
2022-09-06T06:46:25.015Z,16.44
2022-09-06T06:48:54.847Z,16.51
2022-09-06T06:51:25.108Z,16.54
2022-09-06T06:53:52.740Z,16.58
2022-09-06T06:56:25.635Z,16.63
2022-09-06T06:58:55.059Z,16.70
2022-09-06T07:01:22.738Z,16.72
2022-09-06T07:03:50.286Z,16.76
2022-09-06T07:06:18.474Z,16.78
2022-09-06T07:08:45.693Z,16.83
2022-09-06T07:11:14.804Z,16.89
2022-09-06T07:13:41.637Z,16.94
2022-09-06T07:16:13.434Z,16.98
2022-09-06T07:18:42.418Z,17.03
2022-09-06T07:24:09.019Z,17.09
2022-09-06T07:26:38.911Z,17.16
2022-09-06T07:29:07.145Z,17.20
2022-09-06T07:34:22.225Z,17.30
2022-09-06T07:36:52.783Z,17.34
2022-09-06T07:39:19.527Z,17.38
2022-09-06T07:41:46.245Z,17.44
2022-09-06T07:44:13.035Z,17.48
2022-09-06T07:46:39.914Z,17.51
2022-09-06T07:49:07.562Z,17.58
2022-09-06T07:51:34.335Z,17.62
2022-09-06T07:56:47.999Z,17.67
2022-09-06T07:59:14.867Z,17.71
2022-09-06T08:01:42.315Z,17.77
2022-09-06T08:04:14.180Z,17.79
2022-09-06T08:09:31.026Z,17.84
2022-09-06T08:11:57.859Z,17.88
2022-09-06T08:14:24.847Z,17.91
2022-09-06T08:16:51.581Z,17.97
2022-09-06T08:19:21.393Z,18.04
2022-09-06T08:21:48.284Z,18.09
2022-09-06T08:24:15.102Z,18.19
2022-09-06T08:26:43.225Z,18.27
2022-09-06T08:29:11.001Z,18.31
2022-09-06T08:31:40.293Z,18.30
2022-09-06T08:34:07.358Z,18.38
2022-09-06T08:36:34.901Z,18.41
2022-09-06T08:39:06.098Z,18.47
2022-09-06T08:41:48.148Z,18.51
2022-09-06T08:47:14.091Z,18.59
2022-09-06T08:49:43.066Z,18.59
2022-09-06T08:52:44.939Z,18.65
2022-09-06T08:55:34.121Z,18.71
2022-09-06T08:58:29.262Z,18.78
2022-09-06T09:01:19.293Z,18.85
2022-09-06T09:03:47.224Z,18.89
2022-09-06T09:06:13.985Z,18.91
2022-09-06T09:09:08.155Z,18.98
2022-09-06T09:11:36.376Z,19.04
2022-09-06T09:14:08.938Z,19.12
2022-09-06T09:16:36.017Z,19.22
2022-09-06T09:19:05.260Z,19.29
2022-09-06T09:21:38.132Z,19.38
2022-09-06T09:24:10.864Z,19.43
2022-09-06T09:26:59.178Z,19.51
2022-09-06T09:29:29.494Z,19.57
2022-09-06T09:32:01.306Z,19.59
2022-09-06T09:34:33.452Z,19.67
2022-09-06T09:40:17.818Z,19.78
2022-09-06T09:42:44.681Z,19.83
2022-09-06T09:45:31.263Z,19.88
2022-09-06T09:48:17.475Z,19.92
2022-09-06T09:50:44.275Z,19.97
2022-09-06T09:53:16.520Z,19.99
2022-09-06T09:55:44.291Z,20.09
2022-09-06T09:58:32.934Z,20.17
2022-09-06T10:01:20.784Z,20.27
2022-09-06T10:09:30.836Z,20.43
2022-09-06T10:11:59.254Z,20.54
2022-09-06T10:14:33.522Z,20.63
2022-09-06T10:17:00.900Z,20.71
2022-09-06T10:19:41.558Z,20.70
2022-09-06T10:22:20.396Z,20.75
2022-09-06T10:25:28.756Z,20.88
2022-09-06T10:28:13.548Z,20.86
2022-09-06T10:31:06.627Z,20.90
2022-09-06T10:34:02.287Z,20.86
2022-09-06T10:36:37.926Z,20.99
2022-09-06T10:39:11.763Z,21.11
2022-09-06T10:41:52.568Z,21.22
2022-09-06T10:44:37.974Z,21.34
2022-09-06T10:47:14.232Z,21.35
2022-09-06T10:49:45.634Z,21.43
2022-09-06T10:52:17.515Z,21.45
2022-09-06T10:54:47.453Z,21.43
2022-09-06T11:00:13.865Z,21.59
2022-09-06T11:05:53.932Z,21.66
2022-09-06T11:11:26.266Z,21.93
2022-09-06T11:13:52.963Z,21.92
2022-09-06T11:16:30.761Z,21.99
2022-09-06T11:19:10.461Z,22.16
2022-09-06T11:22:04.019Z,22.19
2022-09-06T11:24:45.853Z,22.16
2022-09-06T11:27:21.817Z,22.23
2022-09-06T11:29:56.471Z,22.26
2022-09-06T11:32:44.971Z,22.29
2022-09-06T11:35:33.037Z,22.27
2022-09-06T11:38:17.018Z,22.38
2022-09-06T11:40:47.147Z,22.52
2022-09-06T11:43:32.257Z,22.62
2022-09-06T11:45:58.992Z,22.74
2022-09-06T11:48:26.739Z,22.83
2022-09-06T11:50:53.504Z,22.91
2022-09-06T11:53:22.639Z,22.99
2022-09-06T11:56:14.334Z,23.12
2022-09-06T11:58:53.434Z,23.12
2022-09-06T12:01:20.923Z,23.26
2022-09-06T12:06:31.894Z,23.46
2022-09-06T12:08:59.515Z,23.55
2022-09-06T12:11:30.314Z,23.56
2022-09-06T12:13:59.680Z,23.63
2022-09-06T12:16:58.255Z,23.73
2022-09-06T12:19:46.923Z,23.80
2022-09-06T12:22:37.759Z,23.87
2022-09-06T12:25:34.593Z,23.91
2022-09-06T12:28:20.154Z,23.96
2022-09-06T12:30:48.796Z,24.08
2022-09-06T12:33:19.863Z,24.18
2022-09-06T12:36:04.519Z,24.28
2022-09-06T12:38:33.567Z,24.27
2022-09-06T12:41:01.290Z,24.32
2022-09-06T12:43:28.411Z,24.48
2022-09-06T12:45:55.177Z,24.49
2022-09-06T12:48:41.509Z,24.50
2022-09-06T12:51:19.537Z,24.50
2022-09-06T12:53:58.997Z,24.56
2022-09-06T12:56:27.724Z,24.61
2022-09-06T12:59:14.425Z,24.65
2022-09-06T13:01:51.155Z,24.66
2022-09-06T13:04:52.139Z,24.71
2022-09-06T13:07:22.462Z,24.78
2022-09-06T13:09:52.122Z,24.87
2022-09-06T13:12:50.696Z,24.91
2022-09-06T13:15:36.808Z,25.02
2022-09-06T13:18:31.266Z,25.19
2022-09-06T13:21:14.242Z,25.35
2022-09-06T13:23:47.873Z,25.08
2022-09-06T13:26:15.416Z,25.01
2022-09-06T13:28:42.145Z,24.97
2022-09-06T13:31:09.004Z,24.94
2022-09-06T13:33:37.777Z,24.98
2022-09-06T13:36:09.143Z,24.89
2022-09-06T13:38:38.887Z,24.97
2022-09-06T13:41:12.771Z,25.02
2022-09-06T13:43:46.053Z,25.00
2022-09-06T13:46:13.137Z,25.06
2022-09-06T13:48:40.179Z,25.17
2022-09-06T13:51:09.801Z,25.15
2022-09-06T13:53:36.571Z,25.23
2022-09-06T13:56:03.663Z,25.26
2022-09-06T13:58:30.627Z,25.20
2022-09-06T14:00:58.746Z,25.37
2022-09-06T14:03:29.615Z,25.33
2022-09-06T14:05:56.792Z,25.42
2022-09-06T14:08:24.365Z,25.47
2022-09-06T14:10:51.926Z,25.51
2022-09-06T14:13:19.311Z,25.49
2022-09-06T14:15:47.832Z,25.53
2022-09-06T14:18:15.483Z,25.52
2022-09-06T14:20:42.981Z,25.54
2022-09-06T14:23:09.732Z,25.45
2022-09-06T14:25:37.664Z,25.38
2022-09-06T14:28:04.850Z,25.48
2022-09-06T14:30:31.959Z,25.40
2022-09-06T14:32:59.040Z,25.47
2022-09-06T14:35:26.017Z,25.42
2022-09-06T14:37:52.719Z,25.45
2022-09-06T14:40:19.509Z,25.53
2022-09-06T14:42:50.298Z,25.55
2022-09-06T14:45:17.579Z,25.41
2022-09-06T14:47:44.467Z,25.43
2022-09-06T14:50:11.511Z,25.32
2022-09-06T14:52:38.232Z,25.30
2022-09-06T14:55:05.456Z,25.23
2022-09-06T14:57:32.227Z,25.41
2022-09-06T14:59:59.282Z,25.32
2022-09-06T15:02:28.941Z,25.30
2022-09-06T15:04:55.861Z,25.26
2022-09-06T15:07:22.801Z,25.15
2022-09-06T15:09:51.114Z,25.22
2022-09-06T15:12:18.193Z,25.36
2022-09-06T15:14:45.122Z,25.42
2022-09-06T15:17:11.871Z,25.26
2022-09-06T15:19:39.407Z,25.40
2022-09-06T15:22:07.366Z,25.44
2022-09-06T15:24:34.848Z,25.46
2022-09-06T15:27:01.588Z,25.41
2022-09-06T15:29:28.585Z,25.43
2022-09-06T15:31:55.797Z,25.29
2022-09-06T15:34:25.182Z,25.37
2022-09-06T15:36:53.357Z,25.28
2022-09-06T15:39:20.326Z,25.23
2022-09-06T15:41:47.239Z,25.08
2022-09-06T15:44:16.151Z,25.20
2022-09-06T15:46:54.249Z,24.74
2022-09-06T15:49:28.589Z,24.82
2022-09-06T15:51:58.413Z,25.07
2022-09-06T15:54:44.498Z,25.01
2022-09-06T15:57:11.602Z,24.94
2022-09-06T15:59:39.862Z,24.87
2022-09-06T16:02:07.043Z,25.01
2022-09-06T16:04:33.962Z,25.02
2022-09-06T16:07:00.719Z,25.08
2022-09-06T16:09:27.453Z,25.12
2022-09-06T16:11:54.588Z,25.12
2022-09-06T16:14:21.661Z,25.00
2022-09-06T16:16:48.435Z,25.05
2022-09-06T16:19:15.328Z,24.77
2022-09-06T16:21:43.101Z,24.78
2022-09-06T16:24:12.242Z,24.82
2022-09-06T16:26:44.535Z,24.79
2022-09-06T16:29:13.344Z,24.86
2022-09-06T16:31:40.986Z,24.84
2022-09-06T16:34:12.201Z,24.84
2022-09-06T16:36:39.898Z,24.87
2022-09-06T16:39:07.929Z,24.83
2022-09-06T16:41:40.859Z,24.85
2022-09-06T16:44:09.662Z,24.78
2022-09-06T16:46:36.729Z,24.77
2022-09-06T16:49:04.694Z,24.79
2022-09-06T16:51:32.032Z,24.80
2022-09-06T16:53:59.745Z,24.73
2022-09-06T16:56:29.417Z,24.75
2022-09-06T16:58:58.704Z,24.74
2022-09-06T17:01:27.525Z,24.74
2022-09-06T17:03:54.797Z,24.72
2022-09-06T17:06:23.119Z,24.71
2022-09-06T17:08:51.012Z,24.67
2022-09-06T17:11:20.972Z,24.65
2022-09-06T17:13:50.276Z,24.63
2022-09-06T17:16:36.987Z,24.60
2022-09-06T17:19:04.842Z,24.57
2022-09-06T17:21:32.057Z,24.53
2022-09-06T17:24:03.197Z,24.51
2022-09-06T17:26:31.115Z,24.49
2022-09-06T17:28:57.965Z,24.46
2022-09-06T17:31:26.128Z,24.43
2022-09-06T17:33:53.743Z,24.40
2022-09-06T17:36:26.345Z,24.37
2022-09-06T17:38:59.178Z,24.33
2022-09-06T17:41:28.539Z,24.30
2022-09-06T17:43:55.568Z,24.25
2022-09-06T17:46:28.408Z,24.23
2022-09-06T17:48:56.901Z,24.20
2022-09-06T17:51:24.950Z,24.16
2022-09-06T17:53:52.475Z,24.13
2022-09-06T17:56:20.493Z,24.11
2022-09-06T17:58:55.937Z,24.05
2022-09-06T18:01:24.488Z,23.98
2022-09-06T18:03:51.855Z,24.01
2022-09-06T18:06:22.755Z,23.97
2022-09-06T18:08:51.736Z,23.94
2022-09-06T18:11:22.462Z,23.91
2022-09-06T18:14:06.676Z,23.89
2022-09-06T18:16:34.993Z,23.85
2022-09-06T18:19:04.708Z,23.82
2022-09-06T18:21:33.770Z,23.79
2022-09-06T18:24:00.506Z,23.77
2022-09-06T18:26:27.299Z,23.73
2022-09-06T18:28:54.883Z,23.71
2022-09-06T18:31:23.889Z,23.66
2022-09-06T18:33:51.190Z,23.62
2022-09-06T18:36:19.644Z,23.60
2022-09-06T18:38:46.417Z,23.56
2022-09-06T18:41:34.682Z,23.53
2022-09-06T18:44:03.242Z,23.48
2022-09-06T18:46:31.527Z,23.42
2022-09-06T18:48:58.707Z,23.41
2022-09-06T18:51:26.025Z,23.39
2022-09-06T18:53:52.990Z,23.34
2022-09-06T18:56:20.604Z,23.31
2022-09-06T18:58:47.881Z,23.28
2022-09-06T19:01:17.330Z,23.25
2022-09-06T19:03:44.353Z,23.22
2022-09-06T19:06:13.789Z,23.18
2022-09-06T19:08:41.407Z,23.15
2022-09-06T19:11:14.244Z,23.12
2022-09-06T19:13:42.145Z,23.09
2022-09-06T19:16:10.723Z,23.05
2022-09-06T19:18:38.305Z,23.01
2022-09-06T19:21:08.118Z,22.98
2022-09-06T19:23:37.127Z,22.95
2022-09-06T19:26:07.798Z,22.92
2022-09-06T19:28:35.682Z,22.87
2022-09-06T19:31:13.591Z,22.85
2022-09-06T19:33:41.335Z,22.82
2022-09-06T19:36:11.913Z,22.78
2022-09-06T19:39:02.007Z,22.73
2022-09-06T19:41:28.278Z,22.69
2022-09-06T19:43:57.064Z,22.66
2022-09-06T19:46:27.986Z,22.62
2022-09-06T19:48:59.060Z,22.59
2022-09-06T19:51:25.921Z,22.55
2022-09-06T19:53:54.718Z,22.52
2022-09-06T19:56:27.438Z,22.48
2022-09-06T19:58:55.791Z,22.44
2022-09-06T20:01:23.771Z,22.39
2022-09-06T20:03:50.818Z,22.34
2022-09-06T20:06:17.584Z,22.31
2022-09-06T20:08:48.746Z,22.27
2022-09-06T20:11:15.523Z,22.23
2022-09-06T20:13:42.905Z,22.20
2022-09-06T20:16:10.802Z,22.15
2022-09-06T20:18:38.066Z,22.12
2022-09-06T20:21:05.813Z,22.08
2022-09-06T20:23:36.824Z,22.03
2022-09-06T20:26:08.997Z,22.00
2022-09-06T20:28:36.105Z,21.96
2022-09-06T20:31:09.348Z,21.91
2022-09-06T20:33:36.851Z,21.88
2022-09-06T20:36:08.913Z,21.83
2022-09-06T20:38:38.107Z,21.79
2022-09-06T20:41:06.174Z,21.75
2022-09-06T20:43:36.744Z,21.71
2022-09-06T20:46:08.990Z,21.67
2022-09-06T20:48:44.181Z,21.61
2022-09-06T20:51:22.744Z,21.58
2022-09-06T20:53:57.308Z,21.53
2022-09-06T20:56:27.005Z,21.50
2022-09-06T20:58:56.592Z,21.46
2022-09-06T21:01:26.175Z,21.41
2022-09-06T21:03:55.022Z,21.37
2022-09-06T21:06:22.683Z,21.33
2022-09-06T21:08:50.277Z,21.30
2022-09-06T21:11:17.371Z,21.26
2022-09-06T21:13:44.096Z,21.22
2022-09-06T21:16:11.268Z,21.19
2022-09-06T21:18:38.059Z,21.16
2022-09-06T21:21:06.898Z,21.12
2022-09-06T21:23:38.689Z,21.08
2022-09-06T21:26:07.927Z,21.05
2022-09-06T21:28:37.563Z,21.01
2022-09-06T21:31:09.958Z,20.97
2022-09-06T21:33:48.086Z,20.94
2022-09-06T21:36:20.955Z,20.89
2022-09-06T21:38:50.088Z,20.86
2022-09-06T21:41:18.285Z,20.83
2022-09-06T21:43:46.027Z,20.77
2022-09-06T21:46:15.433Z,20.76
2022-09-06T21:48:44.339Z,20.72
2022-09-06T21:51:14.251Z,20.68
2022-09-06T21:53:43.179Z,20.65
2022-09-06T21:56:10.140Z,20.63
2022-09-06T21:58:37.665Z,20.60
2022-09-06T22:01:05.457Z,20.57
2022-09-06T22:03:34.934Z,20.53
2022-09-06T22:06:12.547Z,20.52
2022-09-06T22:08:41.886Z,20.46
2022-09-06T22:11:11.199Z,20.43
2022-09-06T22:13:38.281Z,20.40
2022-09-06T22:16:08.067Z,20.36
2022-09-06T22:18:35.570Z,20.33
2022-09-06T22:21:10.965Z,20.29
2022-09-06T22:23:38.614Z,20.24
2022-09-06T22:26:08.618Z,20.23
2022-09-06T22:28:36.360Z,20.18
2022-09-06T22:31:03.746Z,20.15
2022-09-06T22:33:31.091Z,20.12
2022-09-06T22:36:00.482Z,20.09
2022-09-06T22:38:28.535Z,20.07
2022-09-06T22:40:56.603Z,20.04
2022-09-06T22:43:23.741Z,20.01
2022-09-06T22:45:52.087Z,19.99
2022-09-06T22:48:19.505Z,19.95
2022-09-06T22:50:46.712Z,19.93
2022-09-06T22:53:13.483Z,19.91
2022-09-06T22:55:40.320Z,19.87
2022-09-06T22:58:07.120Z,19.86
2022-09-06T23:00:36.328Z,19.83
2022-09-06T23:03:03.120Z,19.80
2022-09-06T23:05:31.654Z,19.78
2022-09-06T23:08:01.599Z,19.76
2022-09-06T23:10:29.858Z,19.72
2022-09-06T23:12:57.091Z,19.70
2022-09-06T23:15:23.807Z,19.68
2022-09-06T23:17:50.899Z,19.67
2022-09-06T23:20:19.464Z,19.64
2022-09-06T23:22:47.102Z,19.62
2022-09-06T23:25:13.972Z,19.60
2022-09-06T23:27:40.795Z,19.58
2022-09-06T23:30:08.317Z,19.56
2022-09-06T23:32:35.764Z,19.53
2022-09-06T23:35:02.550Z,19.52
2022-09-06T23:37:29.271Z,19.50
2022-09-06T23:39:56.001Z,19.48
2022-09-06T23:42:23.250Z,19.45
2022-09-06T23:44:54.486Z,19.42
2022-09-06T23:47:21.359Z,19.40
2022-09-06T23:49:50.901Z,19.38
2022-09-06T23:52:18.385Z,19.35
2022-09-06T23:54:45.162Z,19.34
2022-09-06T23:57:12.053Z,19.34
2022-09-06T23:59:38.764Z,19.31
